Time;durP1;ratioP1;P1;durP2;ratioP2;P2;SDS_P1;SDS_P2;PMS_P1;PMS_P2;Temp;Humidity;BMP_temperature;BMP_pressure;BME280_temperature;BME280_humidity;BME280_pressure;Samples;Min_cycle;Max_cycle;Signal;HPM_P1;HPM_P2
2022/04/20 00:00:36;;;;;;;19.33;10.40;;;;;;;6.44;83.75;99782.91;5039194;28;20172;-69
2022/04/20 00:03:03;;;;;;;16.65;9.98;;;;;;;6.45;84.11;99775.84;5037487;28;20136;-69
2022/04/20 00:05:33;;;;;;;14.25;9.48;;;;;;;6.54;82.96;99782.91;5037913;28;20041;-69
2022/04/20 00:08:04;;;;;;;16.45;9.80;;;;;;;6.62;82.39;99780.44;5038766;28;20029;-69
2022/04/20 00:10:30;;;;;;;25.05;11.73;;;;;;;6.60;82.10;99791.09;5037437;28;20060;-69
2022/04/20 00:12:56;;;;;;;19.50;10.88;;;;;;;6.53;82.86;99784.72;5037855;28;20279;-68
2022/04/20 00:15:23;;;;;;;15.93;9.40;;;;;;;6.42;83.78;99778.75;5037693;28;20056;-68
2022/04/20 00:17:48;;;;;;;15.98;9.30;;;;;;;6.58;81.95;99782.50;5037931;28;20033;-69
2022/04/20 00:20:14;;;;;;;14.52;9.30;;;;;;;6.46;82.59;99778.34;5039248;28;20102;-69
2022/04/20 00:22:39;;;;;;;14.45;9.68;;;;;;;6.41;82.15;99783.16;5039112;28;20087;-69
2022/04/20 00:25:05;;;;;;;13.73;9.35;;;;;;;6.32;82.64;99789.22;5039390;28;20033;-69
2022/04/20 00:27:38;;;;;;;14.68;9.38;;;;;;;6.40;82.19;99790.22;5038412;28;20144;-69
2022/04/20 00:30:05;;;;;;;15.98;9.40;;;;;;;6.45;81.44;99797.72;5037553;28;20029;-69
2022/04/20 00:32:31;;;;;;;36.58;14.18;;;;;;;6.38;81.42;99805.31;5038678;28;20060;-69
2022/04/20 00:34:57;;;;;;;26.65;12.60;;;;;;;6.20;81.77;99809.50;5037256;28;20230;-68
2022/04/20 00:37:23;;;;;;;50.67;16.00;;;;;;;6.18;81.87;99810.59;5037500;28;20092;-68
2022/04/20 00:39:48;;;;;;;39.65;13.13;;;;;;;5.71;83.08;99804.94;5038326;28;20056;-69
2022/04/20 00:42:14;;;;;;;19.97;10.33;;;;;;;5.89;83.36;99815.69;5037179;28;20350;-69
2022/04/20 00:44:43;;;;;;;16.80;10.27;;;;;;;5.99;83.36;99806.94;5036966;28;20069;-69
2022/04/20 00:47:09;;;;;;;13.90;8.73;;;;;;;5.92;83.80;99816.28;5037172;28;20052;-69
2022/04/20 00:49:35;;;;;;;11.67;7.93;;;;;;;6.08;82.78;99818.44;5037009;28;20794;-69
2022/04/20 00:52:02;;;;;;;13.02;8.50;;;;;;;5.91;83.42;99817.25;5036956;28;20096;-69
2022/04/20 00:54:29;;;;;;;11.50;8.20;;;;;;;6.12;81.58;99817.22;5036865;28;20053;-68
2022/04/20 00:56:54;;;;;;;10.13;8.13;;;;;;;6.21;80.96;99811.16;5036974;28;20040;-69
2022/04/20 00:59:22;;;;;;;14.32;7.82;;;;;;;6.25;80.75;99804.72;5038089;28;20247;-68
2022/04/20 01:01:49;;;;;;;13.05;7.95;;;;;;;6.26;80.66;99803.75;5038790;28;20035;-68
2022/04/20 01:04:15;;;;;;;16.05;8.93;;;;;;;6.29;79.96;99800.84;5036155;28;20033;-69
2022/04/20 01:06:41;;;;;;;12.13;7.15;;;;;;;6.23;79.16;99801.34;5037933;28;20037;-69
2022/04/20 01:09:06;;;;;;;10.88;7.50;;;;;;;6.18;79.54;99798.28;5036896;28;20513;-69
2022/04/20 01:11:32;;;;;;;10.77;7.28;;;;;;;6.14;79.81;99793.44;5036596;28;20226;-69
2022/04/20 01:13:58;;;;;;;14.57;6.87;;;;;;;6.08;79.93;99794.78;5037933;28;20148;-69
2022/04/20 01:16:23;;;;;;;12.33;7.57;;;;;;;6.01;80.55;99789.22;5037927;28;20212;-69
2022/04/20 01:18:50;;;;;;;10.73;7.68;;;;;;;6.13;80.36;99797.03;5036795;28;20036;-68
2022/04/20 01:21:15;;;;;;;12.30;7.72;;;;;;;6.03;80.29;99797.81;5037616;28;20037;-68
2022/04/20 01:23:42;;;;;;;10.20;7.45;;;;;;;6.09;79.61;99794.66;5036541;28;20047;-68
2022/04/20 01:26:08;;;;;;;12.30;7.50;;;;;;;6.11;80.24;99807.66;5037678;28;20100;-68
2022/04/20 01:28:35;;;;;;;34.37;10.93;;;;;;;6.08;79.55;99792.16;5033810;28;21218;-68
2022/04/20 01:31:01;;;;;;;14.80;8.07;;;;;;;6.13;79.66;99791.75;5036375;28;20041;-69
2022/04/20 01:33:27;;;;;;;39.57;12.37;;;;;;;6.08;79.48;99785.09;5037885;28;20052;-69
2022/04/20 01:35:52;;;;;;;28.33;11.10;;;;;;;6.05;80.28;99792.44;5036164;28;20463;-69
2022/04/20 01:38:17;;;;;;;13.55;7.25;;;;;;;5.89;79.77;99785.03;5035705;28;20116;-68
2022/04/20 01:40:43;;;;;;;10.10;7.55;;;;;;;5.99;80.50;99796.41;5036702;28;20092;-69
2022/04/20 01:43:08;;;;;;;12.00;8.33;;;;;;;5.95;79.96;99791.56;5036301;28;20278;-68
2022/04/20 01:45:34;;;;;;;14.68;7.70;;;;;;;5.87;79.96;99789.53;5036564;28;20037;-68
2022/04/20 01:47:59;;;;;;;14.43;7.75;;;;;;;5.80;78.63;99795.44;5036000;28;20029;-68
2022/04/20 01:50:24;;;;;;;15.43;7.80;;;;;;;5.69;78.35;99788.47;5037744;28;20041;-68
2022/04/20 01:52:50;;;;;;;15.37;8.33;;;;;;;5.50;80.15;99793.63;5036414;28;20067;-68
2022/04/20 01:55:18;;;;;;;12.00;7.07;;;;;;;5.49;81.38;99794.59;5036054;28;20104;-69
2022/04/20 01:57:44;;;;;;;11.23;7.10;;;;;;;5.54;81.36;99787.16;5036553;28;20149;-68
2022/04/20 02:00:10;;;;;;;12.23;7.70;;;;;;;5.60;80.11;99770.88;5036057;28;20239;-68
2022/04/20 02:02:38;;;;;;;11.90;7.70;;;;;;;5.56;80.52;99780.81;5037519;28;20250;-68
2022/04/20 02:05:06;;;;;;;13.32;7.70;;;;;;;5.56;80.57;99791.31;5035824;28;20045;-68
2022/04/20 02:07:32;;;;;;;14.87;8.03;;;;;;;5.62;80.49;99788.16;5036268;28;20041;-69
2022/04/20 02:09:58;;;;;;;13.57;8.00;;;;;;;5.69;79.76;99784.06;5036483;28;20080;-69
2022/04/20 02:12:24;;;;;;;15.07;8.20;;;;;;;5.75;79.41;99782.72;5035129;28;20323;-68
2022/04/20 02:14:50;;;;;;;15.02;8.30;;;;;;;5.56;79.68;99772.94;5036341;28;20101;-69
2022/04/20 02:17:16;;;;;;;11.20;7.57;;;;;;;5.65;79.27;99781.81;5036703;28;20049;-68
2022/04/20 02:19:42;;;;;;;10.97;7.33;;;;;;;5.64;78.94;99782.78;5036211;28;20330;-68
2022/04/20 02:22:07;;;;;;;10.40;6.80;;;;;;;5.57;79.70;99786.88;5036535;28;20061;-68
2022/04/20 02:24:33;;;;;;;11.70;7.77;;;;;;;5.63;79.54;99787.22;5037200;28;20092;-68
2022/04/20 02:26:58;;;;;;;13.27;7.13;;;;;;;5.61;80.13;99783.03;5035452;28;20286;-68
2022/04/20 02:29:24;;;;;;;15.03;7.60;;;;;;;5.54;80.39;99787.97;5037175;28;20041;-68
2022/04/20 02:31:49;;;;;;;17.55;9.07;;;;;;;5.54;80.75;99787.16;5035641;28;20330;-68
2022/04/20 02:34:15;;;;;;;17.60;9.00;;;;;;;5.46;81.50;99787.78;5035390;28;20040;-69
2022/04/20 02:36:41;;;;;;;16.20;9.03;;;;;;;5.53;80.44;99803.88;5036064;28;20106;-68
2022/04/20 02:39:06;;;;;;;15.80;9.93;;;;;;;5.39;80.66;99807.66;5036045;28;20327;-68
2022/04/20 02:41:37;;;;;;;9.15;6.90;;;;;;;5.41;78.83;99811.81;5040697;28;20354;-69
2022/04/20 02:44:04;;;;;;;18.00;7.43;;;;;;;5.45;78.48;99812.38;5039137;28;20064;-68
2022/04/20 02:46:29;;;;;;;22.07;8.80;;;;;;;5.33;79.77;99811.63;5040506;28;20045;-68
2022/04/20 02:48:55;;;;;;;21.60;7.90;;;;;;;5.46;79.47;99811.44;5040443;28;20315;-68
2022/04/20 02:51:20;;;;;;;14.77;7.60;;;;;;;5.23;79.59;99781.84;5037522;28;20096;-68
2022/04/20 02:53:46;;;;;;;15.60;7.63;;;;;;;5.43;80.22;99820.41;5040366;28;20045;-68
2022/04/20 02:56:11;;;;;;;18.77;7.67;;;;;;;5.38;79.92;99819.13;5038959;28;20084;-68
2022/04/20 02:58:37;;;;;;;15.70;9.17;;;;;;;5.33;80.97;99806.38;5040870;28;20151;-69
2022/04/20 03:01:03;;;;;;;19.63;10.10;;;;;;;5.35;80.94;99803.59;5038870;28;20037;-69
2022/04/20 03:03:28;;;;;;;32.27;13.47;;;;;;;5.39;80.85;99808.47;5039311;28;20029;-68
2022/04/20 03:05:54;;;;;;;45.92;18.13;;;;;;;5.43;81.22;99809.88;5039853;28;20064;-68
2022/04/20 03:08:20;;;;;;;96.10;34.93;;;;;;;5.53;80.60;99811.75;5038823;28;20435;-68
2022/04/20 03:10:45;;;;;;;134.50;46.67;;;;;;;5.60;80.52;99815.53;5038913;28;20033;-68
2022/04/20 03:13:11;;;;;;;111.10;36.63;;;;;;;5.60;79.53;99820.78;5040252;28;20037;-68
2022/04/20 03:15:36;;;;;;;47.77;18.70;;;;;;;5.54;78.74;99822.13;5038803;28;20105;-68
2022/04/20 03:18:02;;;;;;;54.83;17.90;;;;;;;5.47;78.74;99833.28;5040157;28;20109;-68
2022/04/20 03:20:27;;;;;;;44.93;19.10;;;;;;;5.40;78.70;99822.44;5036334;28;20030;-69
2022/04/20 03:22:53;;;;;;;82.33;27.90;;;;;;;5.34;79.00;99821.16;5038646;28;20092;-69
2022/04/20 03:25:18;;;;;;;129.97;39.83;;;;;;;5.34;79.96;99818.53;5039919;28;20044;-68
2022/04/20 03:27:44;;;;;;;94.10;31.93;;;;;;;5.41;79.50;99818.84;5038582;28;20049;-69
2022/04/20 03:30:12;;;;;;;75.50;29.13;;;;;;;5.30;79.67;99805.78;5038531;28;20043;-68
2022/04/20 03:32:37;;;;;;;100.63;35.67;;;;;;;5.40;79.82;99825.06;5040029;28;20056;-68
2022/04/20 03:35:04;;;;;;;91.67;32.67;;;;;;;5.28;80.27;99818.22;5038830;28;20037;-68
2022/04/20 03:37:30;;;;;;;86.83;29.30;;;;;;;5.38;80.03;99825.19;5038828;28;20032;-68
2022/04/20 03:39:57;;;;;;;110.90;37.60;;;;;;;5.44;78.74;99824.69;5038681;28;20268;-69
2022/04/20 03:42:22;;;;;;;146.77;48.27;;;;;;;5.45;79.23;99821.09;5038098;28;20029;-68
2022/04/20 03:44:48;;;;;;;176.30;57.53;;;;;;;5.37;80.14;99834.03;5039378;28;20060;-69
2022/04/20 03:47:13;;;;;;;180.90;54.23;;;;;;;5.34;79.70;99830.81;5038505;28;20045;-68
2022/04/20 03:49:39;;;;;;;187.67;58.90;;;;;;;5.39;79.36;99840.00;5038219;28;20045;-68
2022/04/20 03:52:06;;;;;;;163.73;52.43;;;;;;;5.30;79.80;99832.88;5038383;28;20357;-69
2022/04/20 03:54:32;;;;;;;175.67;57.27;;;;;;;5.26;80.61;99830.63;5038143;28;20083;-68
2022/04/20 03:57:03;;;;;;;174.13;58.87;;;;;;;5.33;80.48;99844.91;5036881;28;20033;-68
2022/04/20 03:59:33;;;;;;;165.40;52.70;;;;;;;5.44;80.60;99848.31;5037658;28;20079;-68
2022/04/20 04:01:59;;;;;;;152.40;48.40;;;;;;;5.39;81.03;99840.00;5035807;28;20246;-68
2022/04/20 04:04:26;;;;;;;134.40;44.07;;;;;;;5.53;79.87;99838.00;5038672;28;20069;-69
2022/04/20 04:06:51;;;;;;;142.57;44.13;;;;;;;5.51;79.16;99851.28;5037958;28;20033;-68
2022/04/20 04:09:17;;;;;;;121.97;37.83;;;;;;;5.55;79.34;99859.72;5039021;28;20037;-68
2022/04/20 04:11:43;;;;;;;141.23;46.30;;;;;;;5.51;79.84;99859.16;5037631;28;20254;-68
2022/04/20 04:14:08;;;;;;;124.90;41.93;;;;;;;5.54;79.93;99861.53;5037744;28;20290;-68
2022/04/20 04:16:36;;;;;;;88.95;31.42;;;;;;;5.66;80.24;99862.28;5037293;28;20017;-68
2022/04/20 04:19:06;;;;;;;63.37;22.93;;;;;;;5.66;81.09;99860.50;5036892;28;20240;-68
2022/04/20 04:21:35;;;;;;;58.53;21.63;;;;;;;5.78;80.99;99861.28;5037362;28;20088;-68
2022/04/20 04:24:00;;;;;;;59.22;20.05;;;;;;;5.82;80.47;99853.97;5038519;28;20348;-69
2022/04/20 04:26:28;;;;;;;68.72;23.73;;;;;;;5.84;80.36;99850.25;5038074;28;20269;-68
2022/04/20 04:28:53;;;;;;;70.53;25.00;;;;;;;5.96;79.93;99849.25;5037245;28;20048;-68
2022/04/20 04:31:19;;;;;;;32.17;13.80;;;;;;;5.95;80.09;99852.84;5038911;28;20041;-68
2022/04/20 04:33:44;;;;;;;29.60;12.93;;;;;;;6.10;80.62;99858.59;5037466;28;20068;-68
2022/04/20 04:36:10;;;;;;;36.37;14.60;;;;;;;6.18;80.11;99860.56;5037425;28;20029;-68
2022/04/20 04:38:35;;;;;;;60.38;24.33;;;;;;;6.09;79.12;99844.59;5038841;28;20040;-68
2022/04/20 04:41:01;;;;;;;242.88;50.60;;;;;;;6.16;78.83;99855.44;5037251;28;20025;-68
2022/04/20 04:43:27;;;;;;;77.18;26.52;;;;;;;6.09;78.94;99849.88;5038363;28;20201;-68
2022/04/20 04:48:36;;;;;;;86.15;25.42;;;;;;;6.35;78.29;99852.91;5036952;28;20352;-68
2022/04/20 04:51:03;;;;;;;52.17;19.88;;;;;;;6.55;78.63;99861.72;5036337;28;20037;-68
2022/04/20 04:53:28;;;;;;;49.90;20.95;;;;;;;6.35;78.30;99852.91;5036587;28;20311;-68
2022/04/20 04:55:54;;;;;;;46.50;19.63;;;;;;;6.46;78.22;99848.53;5038079;28;20029;-68
2022/04/20 04:58:19;;;;;;;51.75;19.40;;;;;;;6.70;77.28;99838.47;5036561;28;20037;-68
2022/04/20 05:00:44;;;;;;;39.90;18.42;;;;;;;6.88;77.73;99834.22;5036740;28;20097;-68
2022/04/20 05:03:10;;;;;;;41.30;19.42;;;;;;;7.24;76.87;99845.06;5038181;28;20025;-68
2022/04/20 05:05:37;;;;;;;39.08;18.05;;;;;;;7.25;76.36;99837.03;5037518;28;20049;-69
2022/04/20 05:08:02;;;;;;;38.42;18.27;;;;;;;7.89;73.77;99846.97;5037773;28;20048;-69
2022/04/20 05:10:28;;;;;;;29.25;16.65;;;;;;;7.96;73.34;99852.50;5037330;28;20034;-69
2022/04/20 05:12:53;;;;;;;38.75;15.98;;;;;;;8.16;73.07;99856.75;5036755;28;20025;-69
2022/04/20 05:15:19;;;;;;;48.15;23.20;;;;;;;8.53;72.68;99862.06;5037132;28;20049;-69
2022/04/20 05:17:44;;;;;;;57.30;26.98;;;;;;;8.71;71.02;99850.75;5036481;28;20223;-68
2022/04/20 05:20:10;;;;;;;45.65;23.45;;;;;;;8.74;71.69;99850.44;5035322;28;20088;-69
2022/04/20 05:22:39;;;;;;;52.65;24.20;;;;;;;9.02;70.64;99851.25;5037816;28;20025;-69
2022/04/20 05:25:05;;;;;;;54.67;22.77;;;;;;;9.30;69.82;99855.47;5036624;28;20315;-68
2022/04/20 05:27:30;;;;;;;55.85;23.58;;;;;;;9.43;68.23;99852.50;5037962;28;20033;-68
2022/04/20 05:29:56;;;;;;;43.28;20.42;;;;;;;9.62;67.20;99854.97;5037509;28;20088;-69
2022/04/20 05:32:21;;;;;;;47.42;22.25;;;;;;;10.05;66.63;99848.81;5036233;28;20044;-69
2022/04/20 05:34:46;;;;;;;63.85;28.05;;;;;;;10.33;66.22;99848.66;5036273;28;20345;-69
2022/04/20 05:42:40;;;;;;;44.20;23.80;;;;;;;11.24;63.09;99844.34;5033445;28;20072;-69
2022/04/20 05:45:06;;;;;;;40.55;19.38;;;;;;;11.43;62.38;99838.72;5036036;28;20033;-69
2022/04/20 05:47:32;;;;;;;31.42;16.67;;;;;;;11.61;60.67;99830.63;5036187;28;20320;-69
2022/04/20 05:49:57;;;;;;;29.35;15.63;;;;;;;11.85;59.69;99819.22;5037700;28;20041;-68
2022/04/20 05:52:23;;;;;;;34.70;17.27;;;;;;;12.09;59.14;99831.59;5036195;28;20105;-68
2022/04/20 05:54:48;;;;;;;36.35;18.15;;;;;;;12.15;58.60;99820.31;5037342;28;20044;-69
2022/04/20 05:57:14;;;;;;;44.08;18.48;;;;;;;12.28;59.48;99825.91;5035987;28;20126;-69
2022/04/20 05:59:39;;;;;;;41.67;19.15;;;;;;;12.29;59.94;99834.69;5036241;28;20091;-69
2022/04/20 06:02:04;;;;;;;36.28;18.67;;;;;;;11.82;60.82;99841.59;5035620;28;20112;-69
2022/04/20 06:04:30;;;;;;;39.67;19.67;;;;;;;11.42;62.49;99845.03;5035415;28;20286;-69
2022/04/20 06:06:56;;;;;;;49.65;25.35;;;;;;;11.23;63.11;99825.97;5037401;28;20086;-69
2022/04/20 06:09:21;;;;;;;56.28;28.45;;;;;;;10.55;67.01;99829.59;5036025;28;20064;-69
2022/04/20 06:11:46;;;;;;;69.65;33.60;;;;;;;10.78;68.54;99816.59;5037296;28;20097;-68
2022/04/20 06:14:12;;;;;;;86.70;37.55;;;;;;;10.94;66.41;99815.81;5035964;28;20100;-68
2022/04/20 06:16:37;;;;;;;125.55;47.55;;;;;;;10.44;67.62;99808.72;5040902;28;20034;-69
2022/04/20 06:19:03;;;;;;;124.07;50.90;;;;;;;10.27;69.26;99809.59;5040801;28;20100;-69
2022/04/20 06:21:28;;;;;;;137.55;51.15;;;;;;;10.55;68.65;99803.13;5039969;28;20096;-68
2022/04/20 06:23:54;;;;;;;105.00;41.40;;;;;;;10.65;67.07;99789.75;5041238;28;20311;-69
2022/04/20 06:26:19;;;;;;;106.03;42.25;;;;;;;10.73;67.31;99785.31;5039735;28;20075;-69
2022/04/20 06:28:45;;;;;;;115.75;46.65;;;;;;;10.61;67.30;99780.47;5039842;28;20041;-69
2022/04/20 06:31:10;;;;;;;116.72;45.80;;;;;;;10.40;68.00;99778.22;5039370;28;20228;-69
2022/04/20 06:33:35;;;;;;;105.55;44.35;;;;;;;10.41;69.52;99790.50;5039833;28;20044;-69
2022/04/20 06:36:02;;;;;;;111.00;45.78;;;;;;;10.59;66.97;99785.94;5040511;28;20394;-68
2022/04/20 06:38:28;;;;;;;117.13;47.67;;;;;;;10.62;66.95;99784.78;5040408;28;20026;-68
2022/04/20 06:40:53;;;;;;;127.85;48.75;;;;;;;10.70;67.03;99787.44;5038724;28;20250;-69
2022/04/20 06:43:20;;;;;;;79.97;35.47;;;;;;;10.59;70.52;99778.00;5040776;28;20024;-69
2022/04/20 06:45:45;;;;;;;84.88;36.05;;;;;;;10.11;70.92;99786.50;5040832;28;20037;-69
2022/04/20 06:48:11;;;;;;;88.15;37.35;;;;;;;9.77;74.35;99791.78;5039039;28;20147;-69
2022/04/20 06:50:39;;;;;;;99.55;43.50;;;;;;;9.25;73.98;99791.69;5040984;28;20041;-69
2022/04/20 06:58:34;;;;;;;70.75;33.85;;;;;;;8.82;80.19;99798.56;5040591;28;20064;-68
2022/04/20 07:00:59;;;;;;;77.18;33.20;;;;;;;8.67;80.49;99805.31;5039026;28;20200;-69
2022/04/20 07:03:25;;;;;;;72.45;33.42;;;;;;;8.53;81.28;99814.56;5039115;28;20033;-69
2022/04/20 07:05:50;;;;;;;65.60;33.63;;;;;;;8.49;81.59;99809.75;5037769;28;20033;-69
2022/04/20 07:08:16;;;;;;;68.65;34.13;;;;;;;8.64;81.88;99814.38;5039038;28;20029;-69
2022/04/20 07:10:41;;;;;;;76.75;36.78;;;;;;;8.72;79.59;99803.06;5037260;28;20040;-68
2022/04/20 07:13:07;;;;;;;74.30;35.08;;;;;;;8.84;79.61;99814.25;5040119;28;20029;-69
2022/04/20 07:15:32;;;;;;;82.53;35.88;;;;;;;8.80;79.71;99807.59;5038873;28;20025;-69
2022/04/20 07:17:58;;;;;;;71.47;35.13;;;;;;;8.88;79.05;99810.34;5038831;28;20021;-68
2022/04/20 07:20:23;;;;;;;60.83;31.60;;;;;;;8.76;79.18;99800.97;5041129;28;20096;-68
2022/04/20 07:22:50;;;;;;;63.70;34.33;;;;;;;8.60;80.79;99810.38;5038566;28;20037;-69
2022/04/20 07:25:17;;;;;;;70.90;34.58;;;;;;;8.77;80.46;99806.09;5037762;28;20033;-69
2022/04/20 07:27:43;;;;;;;64.72;33.30;;;;;;;8.83;80.93;99805.50;5039472;28;20033;-69
2022/04/20 07:30:09;;;;;;;63.22;33.95;;;;;;;8.93;80.03;99797.50;5035858;28;20040;-69
2022/04/20 07:32:34;;;;;;;63.45;32.67;;;;;;;9.11;79.59;99797.50;5038681;28;20025;-69
2022/04/20 07:34:59;;;;;;;60.28;32.38;;;;;;;9.39;77.99;99793.81;5037947;28;20037;-69
2022/04/20 07:37:25;;;;;;;66.07;31.77;;;;;;;9.51;77.35;99803.16;5036947;28;20041;-69
2022/04/20 07:39:50;;;;;;;61.55;32.15;;;;;;;9.43;78.28;99807.56;5042935;28;20049;-69
2022/04/20 07:42:16;;;;;;;59.72;31.85;;;;;;;9.21;78.85;99799.09;5043164;28;20087;-68
2022/04/20 07:44:41;;;;;;;59.58;31.55;;;;;;;9.10;79.31;99799.31;5041948;28;20033;-68
2022/04/20 07:47:07;;;;;;;56.97;32.28;;;;;;;9.25;79.62;99794.34;5042465;28;20056;-69
2022/04/20 07:52:19;;;;;;;67.43;33.55;;;;;;;9.42;78.82;99790.03;5041893;28;20052;-69
2022/04/20 07:54:45;;;;;;;61.17;32.10;;;;;;;9.64;77.18;99792.19;5043219;28;20353;-69
2022/04/20 07:57:14;;;;;;;63.03;31.58;;;;;;;9.58;77.72;99791.00;5042848;28;20029;-69
2022/04/20 07:59:40;;;;;;;59.33;30.95;;;;;;;9.63;77.49;99776.47;5042898;28;20207;-69
2022/04/20 08:02:06;;;;;;;62.33;32.05;;;;;;;9.65;77.52;99779.78;5042161;28;20033;-68
2022/04/20 08:04:31;;;;;;;65.72;32.55;;;;;;;9.77;77.03;99779.38;5042364;28;20034;-69
2022/04/20 08:06:57;;;;;;;76.57;35.60;;;;;;;9.76;77.11;99785.66;5042494;28;20040;-69
2022/04/20 08:09:24;;;;;;;63.42;31.70;;;;;;;9.83;77.19;99783.22;5042371;28;20327;-69
2022/04/20 08:11:50;;;;;;;200.10;53.88;;;;;;;9.81;76.80;99782.53;5042266;28;20034;-69
2022/04/20 08:14:16;;;;;;;74.35;35.67;;;;;;;9.72;77.61;99800.16;5042743;28;20215;-69
2022/04/20 08:16:43;;;;;;;66.35;33.78;;;;;;;9.70;78.30;99804.78;5042385;28;20230;-68
2022/04/20 08:19:10;;;;;;;63.65;31.75;;;;;;;9.47;79.00;99807.09;5042130;28;20053;-68
2022/04/20 08:21:36;;;;;;;55.40;28.15;;;;;;;9.59;77.53;99803.22;5041020;28;20071;-68
2022/04/20 08:24:02;;;;;;;58.92;28.20;;;;;;;9.60;78.17;99804.06;5042373;28;20037;-69
2022/04/20 08:26:28;;;;;;;54.65;28.85;;;;;;;9.26;79.23;99801.28;5042234;28;20029;-69
2022/04/20 08:28:53;;;;;;;51.35;26.38;;;;;;;9.60;79.27;99791.66;5042146;28;20233;-69
2022/04/20 08:31:19;;;;;;;53.90;25.70;;;;;;;9.87;78.56;99789.84;5042059;28;20041;-69
2022/04/20 08:33:44;;;;;;;60.60;26.65;;;;;;;9.33;79.22;99791.75;5042296;28;20193;-69
2022/04/20 08:36:13;;;;;;;43.10;24.98;;;;;;;8.79;81.83;99787.47;5042000;28;20029;-69
2022/04/20 08:38:39;;;;;;;40.58;24.17;;;;;;;9.10;81.40;99788.75;5041531;28;20072;-69
2022/04/20 08:41:05;;;;;;;66.45;28.85;;;;;;;9.19;81.11;99797.59;5040700;28;20025;-68
2022/04/20 08:43:32;;;;;;;42.47;23.95;;;;;;;9.22;83.04;99802.56;5042034;28;20037;-68
2022/04/20 08:46:00;;;;;;;40.10;25.15;;;;;;;9.30;82.99;99802.63;5041612;28;20048;-69
2022/04/20 08:48:26;;;;;;;42.10;26.48;;;;;;;9.11;84.03;99811.53;5041748;28;20076;-69
2022/04/20 08:50:53;;;;;;;45.45;26.77;;;;;;;9.04;83.06;99801.75;5041577;28;20045;-69
2022/04/20 08:53:20;;;;;;;45.83;29.15;;;;;;;8.99;84.41;99796.91;5041609;28;20037;-69
2022/04/20 08:55:46;;;;;;;46.22;28.58;;;;;;;8.98;86.18;99789.97;5039211;28;20083;-69
2022/04/20 08:58:12;;;;;;;43.50;29.55;;;;;;;8.89;87.25;99786.41;5037429;28;20037;-69
2022/04/20 09:00:38;;;;;;;45.33;30.33;;;;;;;9.11;85.59;99779.03;5038423;28;20041;-69
2022/04/20 09:03:04;;;;;;;58.30;33.08;;;;;;;8.97;86.58;99780.38;5037578;28;20040;-69
2022/04/20 09:05:32;;;;;;;56.75;33.92;;;;;;;9.12;86.64;99770.94;5037290;28;20034;-68
2022/04/20 09:07:58;;;;;;;60.60;32.30;;;;;;;9.23;84.25;99768.06;5038394;28;20033;-68
2022/04/20 09:10:24;;;;;;;74.63;33.38;;;;;;;9.28;85.05;99776.34;5037059;28;20044;-69
2022/04/20 09:13:10;;;;;;;54.40;30.65;;;;;;;9.09;85.18;99771.25;5038493;28;20061;-69
2022/04/20 09:15:38;;;;;;;69.82;32.03;;;;;;;9.32;84.00;99773.41;5036639;28;20059;-68
2022/04/20 09:18:05;;;;;;;54.13;30.85;;;;;;;9.43;85.17;99771.38;5038026;28;20041;-69
2022/04/20 09:20:32;;;;;;;60.88;31.20;;;;;;;9.56;82.32;99779.75;5037120;28;20025;-69
2022/04/20 09:23:09;;;;;;;92.65;39.35;;;;;;;9.52;83.98;99767.00;5037510;28;20029;-69
2022/04/20 09:25:37;;;;;;;48.30;30.15;;;;;;;9.53;85.66;99772.13;5036391;28;20033;-69
2022/04/20 09:28:04;;;;;;;46.03;30.17;;;;;;;9.65;86.76;99771.88;5036056;28;20033;-69
2022/04/20 09:30:39;;;;;;;45.88;31.25;;;;;;;9.85;85.70;99770.66;5038662;28;20068;-68
2022/04/20 09:33:10;;;;;;;45.70;30.00;;;;;;;9.87;83.99;99773.97;5037939;28;20026;-68
2022/04/20 09:35:45;;;;;;;53.33;32.78;;;;;;;9.82;87.00;99760.41;5036809;28;20034;-69
2022/04/20 09:38:11;;;;;;;52.28;31.98;;;;;;;9.64;86.80;99765.75;5036172;28;20036;-69
2022/04/20 09:40:38;;;;;;;45.08;29.17;;;;;;;9.99;84.40;99754.22;5037749;28;20084;-69
2022/04/20 09:43:04;;;;;;;49.85;32.17;;;;;;;10.01;84.76;99749.59;5037006;28;20347;-69
2022/04/20 09:45:31;;;;;;;61.70;36.17;;;;;;;10.14;83.41;99754.44;5036883;28;20105;-69
2022/04/20 09:50:46;;;;;;;55.30;33.05;;;;;;;9.90;85.19;99745.41;5039263;28;20348;-68
2022/04/20 09:53:14;;;;;;;49.20;29.15;;;;;;;10.06;85.04;99738.53;5041603;28;20049;-69
2022/04/20 09:55:41;;;;;;;39.63;25.63;;;;;;;10.14;82.81;99736.75;5040985;28;20077;-69
2022/04/20 09:58:15;;;;;;;39.58;24.55;;;;;;;10.30;81.11;99735.19;5041146;28;20084;-69
2022/04/20 10:00:50;;;;;;;;;;;;;;;10.27;81.01;99724.91;5041103;28;20274;-69
2022/04/20 10:03:29;;;;;;;48.95;26.45;;;;;;;10.43;79.64;99719.69;5041155;28;20146;-69
2022/04/20 10:05:56;;;;;;;47.25;28.02;;;;;;;10.21;83.38;99721.09;5041129;28;20048;-69
2022/04/20 10:08:23;;;;;;;44.97;28.23;;;;;;;10.41;82.61;99721.69;5040546;28;20030;-68
2022/04/20 10:10:50;;;;;;;41.25;26.67;;;;;;;10.32;84.30;99718.16;5039223;28;20051;-68
2022/04/20 10:13:17;;;;;;;42.70;26.15;;;;;;;10.51;83.58;99709.97;5041076;28;20041;-69
2022/04/20 10:18:30;;;;;;;38.08;24.10;;;;;;;10.88;77.41;99706.03;5040401;28;20040;-69
2022/04/20 10:20:58;;;;;;;39.78;24.67;;;;;;;10.79;79.41;99694.59;5041395;28;20021;-69
2022/04/20 10:23:25;;;;;;;40.58;25.25;;;;;;;10.88;76.35;99692.78;5041210;28;20032;-69
2022/04/20 10:25:52;;;;;;;37.70;24.25;;;;;;;10.87;77.16;99680.53;5040314;28;20219;-69
2022/04/20 10:28:25;;;;;;;32.08;19.60;;;;;;;10.83;75.22;99690.63;5040340;28;20036;-69
2022/04/20 10:31:03;;;;;;;26.83;17.92;;;;;;;10.67;75.32;99684.50;5040593;28;20025;-69
2022/04/20 10:33:31;;;;;;;35.63;22.73;;;;;;;10.71;76.03;99685.81;5041328;28;20038;-69
2022/04/20 10:36:06;;;;;;;32.05;22.13;;;;;;;10.52;76.02;99690.44;5040014;28;20068;-69
2022/04/20 10:38:32;;;;;;;33.47;20.63;;;;;;;10.73;74.69;99682.03;5040061;28;20342;-69
2022/04/20 10:41:05;;;;;;;31.38;20.27;;;;;;;10.67;75.97;99676.56;5040023;28;20084;-69
2022/04/20 10:43:32;;;;;;;29.58;18.05;;;;;;;10.59;74.65;99669.44;5040770;28;20338;-69
2022/04/20 10:46:14;;;;;;;30.92;20.10;;;;;;;10.58;74.89;99667.78;5040326;28;20164;-69
2022/04/20 10:49:02;;;;;;;30.58;20.15;;;;;;;10.59;75.98;99660.66;5040777;28;20108;-69
2022/04/20 10:51:30;;;;;;;34.28;21.20;;;;;;;10.67;76.26;99664.13;5040054;28;20025;-69
2022/04/20 10:54:26;;;;;;;36.50;23.60;;;;;;;10.71;78.75;99664.63;5037150;28;20136;-69
2022/04/20 10:57:01;;;;;;;40.20;22.38;;;;;;;10.74;78.95;99666.97;5043287;28;20033;-69
2022/04/20 10:59:27;;;;;;;33.65;19.98;;;;;;;10.79;77.60;99662.00;5044063;28;20029;-70
2022/04/20 11:01:59;;;;;;;33.97;21.38;;;;;;;10.81;73.61;99662.66;5042890;28;20029;-69
2022/04/20 11:04:46;;;;;;;34.17;20.40;;;;;;;10.70;74.81;99660.34;5042016;28;20118;-69
2022/04/20 11:07:16;;;;;;;33.22;21.20;;;;;;;10.49;75.25;99637.81;5043659;28;20411;-69
2022/04/20 11:09:45;;;;;;;31.80;20.63;;;;;;;10.71;75.63;99624.91;5042272;28;20041;-69
2022/04/20 11:21:09;;;;;;;27.30;17.65;;;;;;;10.92;76.14;99614.63;5043277;28;20044;-69
2022/04/20 11:23:58;;;;;;;27.88;17.92;;;;;;;10.87;74.92;99614.31;5043177;28;20335;-70
2022/04/20 11:26:25;;;;;;;27.33;18.13;;;;;;;10.70;73.95;99610.84;5042412;28;20043;-69
2022/04/20 11:29:24;;;;;;;26.67;18.70;;;;;;;10.96;73.67;99596.59;5043209;28;20037;-69
2022/04/20 11:31:51;;;;;;;24.90;17.73;;;;;;;11.02;73.92;99591.44;5039080;28;20051;-69
2022/04/20 11:34:20;;;;;;;33.22;20.95;;;;;;;10.77;77.57;99577.41;5043305;28;20075;-69
2022/04/20 11:36:47;;;;;;;33.08;21.33;;;;;;;10.71;79.90;99588.66;5042034;28;20798;-70
2022/04/20 11:39:18;;;;;;;40.17;25.65;;;;;;;10.85;79.17;99581.88;5042925;28;20307;-69
2022/04/20 11:41:53;;;;;;;36.92;24.25;;;;;;;10.90;77.95;99589.31;5043097;28;20373;-70
2022/04/20 11:44:25;;;;;;;37.35;23.38;;;;;;;10.99;78.49;99578.53;5041752;28;20029;-69
2022/04/20 11:46:53;;;;;;;37.97;24.85;;;;;;;10.91;78.51;99581.19;5042868;28;20377;-69
2022/04/20 11:49:20;;;;;;;36.25;23.63;;;;;;;10.86;78.81;99579.06;5042764;28;20176;-69
2022/04/20 11:51:57;;;;;;;42.90;26.42;;;;;;;10.88;77.42;99571.75;5042783;28;20299;-69
2022/04/20 11:54:24;;;;;;;39.05;25.50;;;;;;;11.00;76.96;99574.88;5042980;28;20033;-69